sensor_id;sensor_type;location;lat;lon;timestamp;pressure;altitude;pressure_sealevel;temperature;humidity
53932;BME280;39844;52.496;13.482;2023-02-18T00:02:09;101272.16;;;7.60;68.17
53932;BME280;39844;52.496;13.482;2023-02-18T00:04:34;101276.53;;;7.60;68.25
53932;BME280;39844;52.496;13.482;2023-02-18T00:06:59;101269.47;;;7.56;68.65
53932;BME280;39844;52.496;13.482;2023-02-18T00:09:25;101279.03;;;7.55;68.56
53932;BME280;39844;52.496;13.482;2023-02-18T00:11:50;101280.81;;;7.55;68.82
53932;BME280;39844;52.496;13.482;2023-02-18T00:14:16;101276.41;;;7.54;68.96
53932;BME280;39844;52.496;13.482;2023-02-18T00:16:42;101271.19;;;7.54;68.87
53932;BME280;39844;52.496;13.482;2023-02-18T00:19:12;101271.13;;;7.51;69.17
53932;BME280;39844;52.496;13.482;2023-02-18T00:21:38;101279.84;;;7.50;68.99
53932;BME280;39844;52.496;13.482;2023-02-18T00:24:04;101278.91;;;7.46;69.74
53932;BME280;39844;52.496;13.482;2023-02-18T00:26:30;101292.72;;;7.42;70.12
53932;BME280;39844;52.496;13.482;2023-02-18T00:28:55;101286.66;;;7.42;70.18
53932;BME280;39844;52.496;13.482;2023-02-18T00:31:27;101301.44;;;7.41;70.19
53932;BME280;39844;52.496;13.482;2023-02-18T00:33:53;101304.88;;;7.40;70.32
53932;BME280;39844;52.496;13.482;2023-02-18T00:36:20;101294.38;;;7.37;70.60
53932;BME280;39844;52.496;13.482;2023-02-18T00:38:54;101303.03;;;7.33;70.80
53932;BME280;39844;52.496;13.482;2023-02-18T00:41:20;101294.28;;;7.31;70.92
53932;BME280;39844;52.496;13.482;2023-02-18T00:43:46;101295.13;;;7.30;70.78
53932;BME280;39844;52.496;13.482;2023-02-18T00:46:12;101302.91;;;7.27;70.94
53932;BME280;39844;52.496;13.482;2023-02-18T00:48:38;101309.81;;;7.24;71.47
53932;BME280;39844;52.496;13.482;2023-02-18T00:51:04;101309.75;;;7.19;71.46
53932;BME280;39844;52.496;13.482;2023-02-18T00:53:30;101310.56;;;7.18;71.38
53932;BME280;39844;52.496;13.482;2023-02-18T00:55:56;101327.03;;;7.14;72.00
53932;BME280;39844;52.496;13.482;2023-02-18T00:58:21;101319.16;;;7.13;71.97
53932;BME280;39844;52.496;13.482;2023-02-18T01:00:47;101314.75;;;7.09;72.28
53932;BME280;39844;52.496;13.482;2023-02-18T01:03:13;101323.34;;;7.05;72.08
53932;BME280;39844;52.496;13.482;2023-02-18T01:05:39;101315.47;;;7.02;72.16
53932;BME280;39844;52.496;13.482;2023-02-18T01:08:07;101320.72;;;7.03;72.25
53932;BME280;39844;52.496;13.482;2023-02-18T01:10:32;101311.09;;;6.99;72.23
53932;BME280;39844;52.496;13.482;2023-02-18T01:12:58;101314.56;;;6.99;72.22
53932;BME280;39844;52.496;13.482;2023-02-18T01:15:23;101298.88;;;6.98;71.82
53932;BME280;39844;52.496;13.482;2023-02-18T01:17:48;101303.22;;;6.97;71.97
53932;BME280;39844;52.496;13.482;2023-02-18T01:20:14;101306.63;;;6.93;72.31
53932;BME280;39844;52.496;13.482;2023-02-18T01:22:40;101314.41;;;6.92;72.52
53932;BME280;39844;52.496;13.482;2023-02-18T01:25:07;101312.59;;;6.88;72.83
53932;BME280;39844;52.496;13.482;2023-02-18T01:27:32;101317.81;;;6.88;72.32
53932;BME280;39844;52.496;13.482;2023-02-18T01:29:58;101321.25;;;6.87;72.36
53932;BME280;39844;52.496;13.482;2023-02-18T01:32:23;101318.63;;;6.87;72.23
53932;BME280;39844;52.496;13.482;2023-02-18T01:34:48;101304.69;;;6.83;72.56
53932;BME280;39844;52.496;13.482;2023-02-18T01:37:14;101313.34;;;6.82;72.95
53932;BME280;39844;52.496;13.482;2023-02-18T01:39:39;101305.50;;;6.81;72.83
53932;BME280;39844;52.496;13.482;2023-02-18T01:42:04;101316.75;;;6.80;72.78
53932;BME280;39844;52.496;13.482;2023-02-18T01:44:33;101306.31;;;6.78;72.61
53932;BME280;39844;52.496;13.482;2023-02-18T01:46:58;101312.34;;;6.76;72.78
53932;BME280;39844;52.496;13.482;2023-02-18T01:49:24;101306.25;;;6.77;73.09
53932;BME280;39844;52.496;13.482;2023-02-18T01:52:13;101317.56;;;6.76;73.37
53932;BME280;39844;52.496;13.482;2023-02-18T01:54:43;101307.13;;;6.76;72.90
53932;BME280;39844;52.496;13.482;2023-02-18T01:57:13;101313.19;;;6.76;72.71
53932;BME280;39844;52.496;13.482;2023-02-18T01:59:51;101318.41;;;6.76;72.91
53932;BME280;39844;52.496;13.482;2023-02-18T02:02:20;101325.38;;;6.76;73.05
53932;BME280;39844;52.496;13.482;2023-02-18T02:04:47;101313.19;;;6.75;72.89
53932;BME280;39844;52.496;13.482;2023-02-18T02:07:14;101308.78;;;6.74;72.76
53932;BME280;39844;52.496;13.482;2023-02-18T02:09:40;101301.91;;;6.76;72.99
53932;BME280;39844;52.496;13.482;2023-02-18T02:19:58;101324.44;;;6.74;73.08
53932;BME280;39844;52.496;13.482;2023-02-18T02:33:51;101319.31;;;6.77;72.44
53932;BME280;39844;52.496;13.482;2023-02-18T02:36:28;101317.50;;;6.74;72.38
53932;BME280;39844;52.496;13.482;2023-02-18T02:42:38;101319.97;;;6.67;73.28
53932;BME280;39844;52.496;13.482;2023-02-18T02:44:53;101349.47;;;6.64;73.15
53932;BME280;39844;52.496;13.482;2023-02-18T02:48:27;101319.94;;;6.65;72.74
53932;BME280;39844;52.496;13.482;2023-02-18T02:51:14;101329.47;;;6.65;72.80
53932;BME280;39844;52.496;13.482;2023-02-18T02:53:27;101332.94;;;6.64;72.89
53932;BME280;39844;52.496;13.482;2023-02-18T02:55:54;101339.91;;;6.65;72.61
53932;BME280;39844;52.496;13.482;2023-02-18T02:58:19;101345.97;;;6.64;72.75
53932;BME280;39844;52.496;13.482;2023-02-18T03:04:05;101322.53;;;6.65;72.50
53932;BME280;39844;52.496;13.482;2023-02-18T03:14:28;101333.88;;;6.67;72.08
53932;BME280;39844;52.496;13.482;2023-02-18T03:17:02;101331.25;;;6.66;71.93
53932;BME280;39844;52.496;13.482;2023-02-18T03:19:39;101329.50;;;6.66;71.65
53932;BME280;39844;52.496;13.482;2023-02-18T03:22:17;101327.75;;;6.65;71.62
53932;BME280;39844;52.496;13.482;2023-02-18T03:24:49;101343.38;;;6.64;71.86
53932;BME280;39844;52.496;13.482;2023-02-18T03:27:36;101329.41;;;6.62;71.82
53932;BME280;39844;52.496;13.482;2023-02-18T03:30:09;101329.41;;;6.62;71.83
53932;BME280;39844;52.496;13.482;2023-02-18T03:32:36;101329.47;;;6.63;71.19
53932;BME280;39844;52.496;13.482;2023-02-18T03:35:08;101322.53;;;6.65;71.02
53932;BME280;39844;52.496;13.482;2023-02-18T03:37:38;101322.50;;;6.64;71.14
53932;BME280;39844;52.496;13.482;2023-02-18T03:40:08;101332.06;;;6.63;71.68
53932;BME280;39844;52.496;13.482;2023-02-18T03:42:34;101320.75;;;6.63;71.36
53932;BME280;39844;52.496;13.482;2023-02-18T03:44:59;101325.09;;;6.62;71.20
53932;BME280;39844;52.496;13.482;2023-02-18T03:47:25;101333.81;;;6.64;71.13
53932;BME280;39844;52.496;13.482;2023-02-18T03:49:50;101326.81;;;6.62;71.33
53932;BME280;39844;52.496;13.482;2023-02-18T03:52:15;101323.28;;;6.60;70.86
53932;BME280;39844;52.496;13.482;2023-02-18T03:54:41;101331.13;;;6.60;70.53
53932;BME280;39844;52.496;13.482;2023-02-18T03:57:07;101315.47;;;6.60;70.69
53932;BME280;39844;52.496;13.482;2023-02-18T03:59:32;101315.47;;;6.60;70.70
53932;BME280;39844;52.496;13.482;2023-02-18T04:01:57;101331.13;;;6.60;70.20
53932;BME280;39844;52.496;13.482;2023-02-18T04:04:22;101337.16;;;6.59;70.52
53932;BME280;39844;52.496;13.482;2023-02-18T04:06:48;101338.91;;;6.58;70.26
53932;BME280;39844;52.496;13.482;2023-02-18T04:09:13;101334.50;;;6.56;70.33
53932;BME280;39844;52.496;13.482;2023-02-18T04:11:39;101337.97;;;6.55;70.60
53932;BME280;39844;52.496;13.482;2023-02-18T04:14:05;101336.19;;;6.54;70.19
53932;BME280;39844;52.496;13.482;2023-02-18T04:16:31;101335.28;;;6.52;70.46
53932;BME280;39844;52.496;13.482;2023-02-18T04:18:57;101337.81;;;6.49;70.67
53932;BME280;39844;52.496;13.482;2023-02-18T04:21:22;101341.34;;;6.51;70.29
53932;BME280;39844;52.496;13.482;2023-02-18T04:23:47;101348.25;;;6.49;70.71
53932;BME280;39844;52.496;13.482;2023-02-18T04:26:12;101344.72;;;6.47;70.42
53932;BME280;39844;52.496;13.482;2023-02-18T04:28:38;101356.03;;;6.47;70.60
53932;BME280;39844;52.496;13.482;2023-02-18T04:31:03;101355.13;;;6.45;70.58
53932;BME280;39844;52.496;13.482;2023-02-18T04:33:29;101356.84;;;6.45;70.28
53932;BME280;39844;52.496;13.482;2023-02-18T04:35:54;101358.56;;;6.43;70.50
53932;BME280;39844;52.496;13.482;2023-02-18T04:38:19;101358.56;;;6.43;70.21
53932;BME280;39844;52.496;13.482;2023-02-18T04:40:45;101351.53;;;6.40;70.82
53932;BME280;39844;52.496;13.482;2023-02-18T04:43:10;101361.97;;;6.40;70.86
53932;BME280;39844;52.496;13.482;2023-02-18T04:45:35;101361.00;;;6.36;71.16
53932;BME280;39844;52.496;13.482;2023-02-18T04:48:01;101352.28;;;6.34;70.90
53932;BME280;39844;52.496;13.482;2023-02-18T04:50:26;101362.72;;;6.36;71.04
53932;BME280;39844;52.496;13.482;2023-02-18T04:52:51;101363.63;;;6.36;70.75
53932;BME280;39844;52.496;13.482;2023-02-18T04:55:17;101361.00;;;6.36;71.08
53932;BME280;39844;52.496;13.482;2023-02-18T04:57:42;101363.53;;;6.33;70.94
53932;BME280;39844;52.496;13.482;2023-02-18T05:00:10;101360.03;;;6.31;71.13
53932;BME280;39844;52.496;13.482;2023-02-18T05:02:38;101370.44;;;6.31;71.28
53932;BME280;39844;52.496;13.482;2023-02-18T05:05:03;101362.59;;;6.30;71.28
53932;BME280;39844;52.496;13.482;2023-02-18T05:07:28;101365.16;;;6.28;71.20
53932;BME280;39844;52.496;13.482;2023-02-18T05:09:54;101358.19;;;6.27;71.13
53932;BME280;39844;52.496;13.482;2023-02-18T05:12:19;101366.03;;;6.27;71.13
53932;BME280;39844;52.496;13.482;2023-02-18T05:14:44;101371.22;;;6.27;70.93
53932;BME280;39844;52.496;13.482;2023-02-18T05:17:10;101366.03;;;6.27;71.30
53932;BME280;39844;52.496;13.482;2023-02-18T05:19:35;101371.22;;;6.27;71.42
53932;BME280;39844;52.496;13.482;2023-02-18T05:22:00;101361.72;;;6.29;71.06
53932;BME280;39844;52.496;13.482;2023-02-18T05:24:26;101370.44;;;6.30;70.99
53932;BME280;39844;52.496;13.482;2023-02-18T05:26:51;101362.69;;;6.33;70.68
53932;BME280;39844;52.496;13.482;2023-02-18T05:29:16;101353.19;;;6.36;70.53
53932;BME280;39844;52.496;13.482;2023-02-18T05:31:42;101354.97;;;6.38;70.75
53932;BME280;39844;52.496;13.482;2023-02-18T05:34:07;101348.03;;;6.40;70.56
53932;BME280;39844;52.496;13.482;2023-02-18T05:36:33;101348.97;;;6.42;70.54
53932;BME280;39844;52.496;13.482;2023-02-18T05:38:58;101354.25;;;6.45;70.15
53932;BME280;39844;52.496;13.482;2023-02-18T05:41:23;101341.28;;;6.48;69.53
53932;BME280;39844;52.496;13.482;2023-02-18T05:43:49;101348.28;;;6.50;69.74
53932;BME280;39844;52.496;13.482;2023-02-18T05:46:14;101351.84;;;6.54;69.57
53932;BME280;39844;52.496;13.482;2023-02-18T05:48:39;101344.06;;;6.55;69.24
53932;BME280;39844;52.496;13.482;2023-02-18T05:51:04;101345.00;;;6.59;68.82
53932;BME280;39844;52.496;13.482;2023-02-18T05:53:30;101334.63;;;6.62;68.80
53932;BME280;39844;52.496;13.482;2023-02-18T05:55:55;101331.19;;;6.63;68.77
53932;BME280;39844;52.496;13.482;2023-02-18T05:58:20;101336.47;;;6.66;68.58
53932;BME280;39844;52.496;13.482;2023-02-18T06:00:46;101327.78;;;6.67;68.47
53932;BME280;39844;52.496;13.482;2023-02-18T06:03:11;101346.09;;;6.68;68.39
53932;BME280;39844;52.496;13.482;2023-02-18T06:05:36;101339.13;;;6.69;68.68
53932;BME280;39844;52.496;13.482;2023-02-18T06:08:02;101338.28;;;6.70;68.63
53932;BME280;39844;52.496;13.482;2023-02-18T06:10:27;101341.81;;;6.72;68.33
53932;BME280;39844;52.496;13.482;2023-02-18T06:12:52;101329.66;;;6.74;68.00
53932;BME280;39844;52.496;13.482;2023-02-18T06:15:17;101341.03;;;6.76;68.26
53932;BME280;39844;52.496;13.482;2023-02-18T06:17:43;101348.91;;;6.79;67.93
53932;BME280;39844;52.496;13.482;2023-02-18T06:20:08;101335.91;;;6.80;67.56
53932;BME280;39844;52.496;13.482;2023-02-18T06:22:34;101333.31;;;6.82;67.75
53932;BME280;39844;52.496;13.482;2023-02-18T06:24:59;101330.78;;;6.83;67.22
53932;BME280;39844;52.496;13.482;2023-02-18T06:27:24;101337.72;;;6.84;67.45
53932;BME280;39844;52.496;13.482;2023-02-18T06:29:50;101340.38;;;6.86;67.64
53932;BME280;39844;52.496;13.482;2023-02-18T06:32:15;101337.78;;;6.86;67.71
53932;BME280;39844;52.496;13.482;2023-02-18T06:34:40;101336.91;;;6.87;67.68
53932;BME280;39844;52.496;13.482;2023-02-18T06:37:06;101338.69;;;6.88;67.37
53932;BME280;39844;52.496;13.482;2023-02-18T06:39:31;101335.19;;;6.87;68.02
53932;BME280;39844;52.496;13.482;2023-02-18T06:41:56;101337.88;;;6.90;67.93
53932;BME280;39844;52.496;13.482;2023-02-18T06:44:21;101328.31;;;6.91;67.78
53932;BME280;39844;52.496;13.482;2023-02-18T06:46:47;101322.22;;;6.92;68.25
53932;BME280;39844;52.496;13.482;2023-02-18T06:49:12;101324.84;;;6.92;68.33
53932;BME280;39844;52.496;13.482;2023-02-18T06:51:37;101323.94;;;6.90;68.88
53932;BME280;39844;52.496;13.482;2023-02-18T06:54:03;101323.97;;;6.91;68.35
53932;BME280;39844;52.496;13.482;2023-02-18T06:56:28;101305.72;;;6.93;68.53
53932;BME280;39844;52.496;13.482;2023-02-18T06:58:53;101313.56;;;6.94;68.80
53932;BME280;39844;52.496;13.482;2023-02-18T07:01:19;101327.50;;;6.95;68.57
53932;BME280;39844;52.496;13.482;2023-02-18T07:03:44;101320.59;;;6.97;68.63
53932;BME280;39844;52.496;13.482;2023-02-18T07:06:09;101318.91;;;6.99;68.37
53932;BME280;39844;52.496;13.482;2023-02-18T07:08:35;101312.81;;;6.98;68.72
53932;BME280;39844;52.496;13.482;2023-02-18T07:11:00;101313.72;;;7.00;68.75
53932;BME280;39844;52.496;13.482;2023-02-18T07:13:25;101305.91;;;7.02;68.20
53932;BME280;39844;52.496;13.482;2023-02-18T07:15:51;101306.84;;;7.04;68.24
53932;BME280;39844;52.496;13.482;2023-02-18T07:18:16;101310.38;;;7.08;67.79
53932;BME280;39844;52.496;13.482;2023-02-18T07:20:41;101308.72;;;7.11;68.27
53932;BME280;39844;52.496;13.482;2023-02-18T07:23:07;101305.22;;;7.12;68.05
53932;BME280;39844;52.496;13.482;2023-02-18T07:25:32;101306.16;;;7.14;68.44
53932;BME280;39844;52.496;13.482;2023-02-18T07:27:57;101299.22;;;7.16;68.04
53932;BME280;39844;52.496;13.482;2023-02-18T07:30:23;101294.06;;;7.19;67.94
53932;BME280;39844;52.496;13.482;2023-02-18T07:32:48;101294.09;;;7.22;67.83
53932;BME280;39844;52.496;13.482;2023-02-18T07:35:14;101295.03;;;7.24;68.13
53932;BME280;39844;52.496;13.482;2023-02-18T07:37:43;101299.38;;;7.25;68.16
53932;BME280;39844;52.496;13.482;2023-02-18T07:40:11;101293.34;;;7.28;68.22
53932;BME280;39844;52.496;13.482;2023-02-18T07:42:37;101297.72;;;7.29;68.96
53932;BME280;39844;52.496;13.482;2023-02-18T07:45:02;101294.25;;;7.30;68.33
53932;BME280;39844;52.496;13.482;2023-02-18T07:47:27;101288.19;;;7.31;68.19
53932;BME280;39844;52.496;13.482;2023-02-18T07:49:53;101282.13;;;7.33;68.50
53932;BME280;39844;52.496;13.482;2023-02-18T07:52:18;101276.97;;;7.36;68.79
53932;BME280;39844;52.496;13.482;2023-02-18T07:54:43;101268.28;;;7.37;69.35
53932;BME280;39844;52.496;13.482;2023-02-18T07:57:09;101279.66;;;7.39;69.10
53932;BME280;39844;52.496;13.482;2023-02-18T07:59:34;101286.63;;;7.40;69.66
53932;BME280;39844;52.496;13.482;2023-02-18T08:01:59;101277.03;;;7.39;70.50
53932;BME280;39844;52.496;13.482;2023-02-18T08:04:25;101274.31;;;7.35;70.89
53932;BME280;39844;52.496;13.482;2023-02-18T08:06:50;101280.38;;;7.32;71.54
53932;BME280;39844;52.496;13.482;2023-02-18T08:09:16;101285.56;;;7.29;71.71
53932;BME280;39844;52.496;13.482;2023-02-18T08:11:42;101264.66;;;7.29;72.79
53932;BME280;39844;52.496;13.482;2023-02-18T08:14:07;101259.44;;;7.29;72.96
53932;BME280;39844;52.496;13.482;2023-02-18T08:16:33;101252.44;;;7.28;73.04
53932;BME280;39844;52.496;13.482;2023-02-18T08:18:59;101253.28;;;7.26;73.11
53932;BME280;39844;52.496;13.482;2023-02-18T08:21:25;101247.16;;;7.24;73.84
53932;BME280;39844;52.496;13.482;2023-02-18T08:23:50;101244.50;;;7.22;73.78
53932;BME280;39844;52.496;13.482;2023-02-18T08:26:16;101248.81;;;7.20;74.29
53932;BME280;39844;52.496;13.482;2023-02-18T08:28:43;101244.50;;;7.21;74.88
53932;BME280;39844;52.496;13.482;2023-02-18T08:31:20;101238.38;;;7.20;75.27
53932;BME280;39844;52.496;13.482;2023-02-18T08:33:46;101240.09;;;7.18;76.08
53932;BME280;39844;52.496;13.482;2023-02-18T08:36:12;101232.19;;;7.15;77.38
53932;BME280;39844;52.496;13.482;2023-02-18T08:38:37;101221.69;;;7.11;77.57
53932;BME280;39844;52.496;13.482;2023-02-18T08:41:04;101225.97;;;7.07;78.07
53932;BME280;39844;52.496;13.482;2023-02-18T08:43:30;101224.16;;;7.03;77.96
53932;BME280;39844;52.496;13.482;2023-02-18T08:45:57;101225.00;;;7.02;78.94
53932;BME280;39844;52.496;13.482;2023-02-18T08:48:22;101232.81;;;7.02;79.69
53932;BME280;39844;52.496;13.482;2023-02-18T08:50:47;101223.25;;;7.03;80.82
53932;BME280;39844;52.496;13.482;2023-02-18T08:53:13;101222.34;;;6.99;81.39
53932;BME280;39844;52.496;13.482;2023-02-18T08:55:39;101218.72;;;6.92;81.08
53932;BME280;39844;52.496;13.482;2023-02-18T08:58:05;101227.31;;;6.85;82.40
53932;BME280;39844;52.496;13.482;2023-02-18T09:00:30;101222.91;;;6.84;83.89
53932;BME280;39844;52.496;13.482;2023-02-18T09:02:55;101219.41;;;6.81;84.44
53932;BME280;39844;52.496;13.482;2023-02-18T09:05:21;101210.69;;;6.80;85.59
53932;BME280;39844;52.496;13.482;2023-02-18T09:07:46;101211.50;;;6.78;85.33
53932;BME280;39844;52.496;13.482;2023-02-18T09:10:11;101210.53;;;6.73;85.93
53932;BME280;39844;52.496;13.482;2023-02-18T09:12:37;101197.44;;;6.70;86.25
53932;BME280;39844;52.496;13.482;2023-02-18T09:15:03;101192.16;;;6.67;86.46
53932;BME280;39844;52.496;13.482;2023-02-18T09:17:28;101186.03;;;6.65;87.44
53932;BME280;39844;52.496;13.482;2023-02-18T09:19:54;101181.75;;;6.68;88.65
53932;BME280;39844;52.496;13.482;2023-02-18T09:22:19;101187.84;;;6.69;88.61
53932;BME280;39844;52.496;13.482;2023-02-18T09:24:45;101173.06;;;6.68;89.78
53932;BME280;39844;52.496;13.482;2023-02-18T09:27:10;101176.63;;;6.73;90.78
53932;BME280;39844;52.496;13.482;2023-02-18T09:29:38;101172.28;;;6.73;91.04
53932;BME280;39844;52.496;13.482;2023-02-18T09:32:04;101169.63;;;6.72;91.72
53932;BME280;39844;52.496;13.482;2023-02-18T09:34:30;101170.53;;;6.74;92.75
53932;BME280;39844;52.496;13.482;2023-02-18T09:36:55;101167.09;;;6.76;93.63
53932;BME280;39844;52.496;13.482;2023-02-18T09:39:21;101158.44;;;6.77;93.71
53932;BME280;39844;52.496;13.482;2023-02-18T09:41:48;101155.84;;;6.79;94.12
53932;BME280;39844;52.496;13.482;2023-02-18T09:44:45;101155.91;;;6.82;95.16
53932;BME280;39844;52.496;13.482;2023-02-18T09:47:29;101128.16;;;6.85;95.09
53932;BME280;39844;52.496;13.482;2023-02-18T09:49:58;101120.34;;;6.87;95.21
53932;BME280;39844;52.496;13.482;2023-02-18T09:52:31;101119.50;;;6.88;95.48
53932;BME280;39844;52.496;13.482;2023-02-18T09:54:57;101113.41;;;6.87;95.41
53932;BME280;39844;52.496;13.482;2023-02-18T09:57:29;101107.34;;;6.90;96.25
53932;BME280;39844;52.496;13.482;2023-02-18T10:00:03;101095.19;;;6.89;96.11
53932;BME280;39844;52.496;13.482;2023-02-18T10:02:30;101089.09;;;6.90;96.52
53932;BME280;39844;52.496;13.482;2023-02-18T10:04:56;101084.75;;;6.92;96.63
53932;BME280;39844;52.496;13.482;2023-02-18T10:07:27;101083.94;;;6.93;97.17
53932;BME280;39844;52.496;13.482;2023-02-18T10:09:55;101088.31;;;6.94;97.47
53932;BME280;39844;52.496;13.482;2023-02-18T10:12:23;101078.72;;;6.94;98.15
53932;BME280;39844;52.496;13.482;2023-02-18T10:14:55;101076.16;;;6.96;98.45
53932;BME280;39844;52.496;13.482;2023-02-18T10:17:29;101083.09;;;6.95;98.12
53932;BME280;39844;52.496;13.482;2023-02-18T10:19:57;101080.41;;;6.91;98.14
53932;BME280;39844;52.496;13.482;2023-02-18T10:22:24;101062.97;;;6.88;98.79
53932;BME280;39844;52.496;13.482;2023-02-18T10:24:56;101051.66;;;6.88;99.82
53932;BME280;39844;52.496;13.482;2023-02-18T10:27:25;101040.38;;;6.89;100.00
53932;BME280;39844;52.496;13.482;2023-02-18T10:29:53;101031.69;;;6.90;100.00
53932;BME280;39844;52.496;13.482;2023-02-18T10:32:23;101017.78;;;6.91;100.00
53932;BME280;39844;52.496;13.482;2023-02-18T10:34:54;101009.97;;;6.91;100.00
53932;BME280;39844;52.496;13.482;2023-02-18T10:43:09;100977.06;;;7.00;100.00
53932;BME280;39844;52.496;13.482;2023-02-18T10:49:03;100953.69;;;7.10;100.00
53932;BME280;39844;52.496;13.482;2023-02-18T10:51:32;100951.13;;;7.13;100.00
53932;BME280;39844;52.496;13.482;2023-02-18T10:53:58;100940.66;;;7.11;100.00
53932;BME280;39844;52.496;13.482;2023-02-18T10:56:40;100937.19;;;7.11;100.00
53932;BME280;39844;52.496;13.482;2023-02-18T10:59:10;100926.72;;;7.09;100.00
53932;BME280;39844;52.496;13.482;2023-02-18T11:01:36;100924.97;;;7.08;100.00
53932;BME280;39844;52.496;13.482;2023-02-18T11:04:17;100917.97;;;7.07;100.00
53932;BME280;39844;52.496;13.482;2023-02-18T11:07:11;100906.69;;;7.07;100.00
53932;BME280;39844;52.496;13.482;2023-02-18T11:09:55;100891.88;;;7.04;100.00
53932;BME280;39844;52.496;13.482;2023-02-18T11:12:28;100877.97;;;7.08;100.00
53932;BME280;39844;52.496;13.482;2023-02-18T11:15:15;100864.09;;;7.12;100.00
53932;BME280;39844;52.496;13.482;2023-02-18T11:17:42;100866.78;;;7.18;100.00
53932;BME280;39844;52.496;13.482;2023-02-18T11:22:45;100836.41;;;7.23;100.00
53932;BME280;39844;52.496;13.482;2023-02-18T11:25:26;100838.16;;;7.24;100.00
53932;BME280;39844;52.496;13.482;2023-02-18T11:27:56;100832.94;;;7.24;100.00
53932;BME280;39844;52.496;13.482;2023-02-18T11:32:52;100827.72;;;7.24;100.00
53932;BME280;39844;52.496;13.482;2023-02-18T11:35:23;100825.06;;;7.23;100.00
53932;BME280;39844;52.496;13.482;2023-02-18T11:37:49;100801.59;;;7.21;100.00
53932;BME280;39844;52.496;13.482;2023-02-18T11:40:23;100813.75;;;7.19;100.00
53932;BME280;39844;52.496;13.482;2023-02-18T11:42:49;100792.88;;;7.19;100.00
53932;BME280;39844;52.496;13.482;2023-02-18T11:45:27;100785.00;;;7.16;100.00
53932;BME280;39844;52.496;13.482;2023-02-18T11:48:01;100782.38;;;7.16;100.00
53932;BME280;39844;52.496;13.482;2023-02-18T11:50:31;100771.94;;;7.16;100.00
53932;BME280;39844;52.496;13.482;2023-02-18T11:52:57;100778.91;;;7.17;100.00
53932;BME280;39844;52.496;13.482;2023-02-18T11:55:27;100771.94;;;7.18;100.00
53932;BME280;39844;52.496;13.482;2023-02-18T11:57:59;100751.94;;;7.18;100.00
53932;BME280;39844;52.496;13.482;2023-02-18T12:03:29;100730.25;;;7.25;100.00
53932;BME280;39844;52.496;13.482;2023-02-18T12:05:57;100721.59;;;7.29;100.00
53932;BME280;39844;52.496;13.482;2023-02-18T12:08:27;100706.88;;;7.36;100.00
53932;BME280;39844;52.496;13.482;2023-02-18T12:11:20;100705.19;;;7.45;100.00
53932;BME280;39844;52.496;13.482;2023-02-18T12:13:54;100701.78;;;7.52;100.00
53932;BME280;39844;52.496;13.482;2023-02-18T12:29:19;100676.75;;;7.85;100.00
53932;BME280;39844;52.496;13.482;2023-02-18T12:34:38;100665.53;;;8.02;100.00
53932;BME280;39844;52.496;13.482;2023-02-18T12:54:50;100623.97;;;8.78;100.00
53932;BME280;39844;52.496;13.482;2023-02-18T13:00:30;100626.66;;;9.10;100.00
53932;BME280;39844;52.496;13.482;2023-02-18T13:05:59;100604.81;;;9.45;100.00
53932;BME280;39844;52.496;13.482;2023-02-18T13:13:41;100596.00;;;9.78;100.00
53932;BME280;39844;52.496;13.482;2023-02-18T13:16:15;100586.31;;;9.92;100.00
53932;BME280;39844;52.496;13.482;2023-02-18T13:18:46;100577.53;;;10.02;100.00
53932;BME280;39844;52.496;13.482;2023-02-18T13:21:15;100577.53;;;10.07;100.00
53932;BME280;39844;52.496;13.482;2023-02-18T13:23:57;100569.66;;;10.08;100.00
53932;BME280;39844;52.496;13.482;2023-02-18T13:26:24;100560.91;;;10.11;100.00
53932;BME280;39844;52.496;13.482;2023-02-18T13:31:34;100562.63;;;10.20;100.00
53932;BME280;39844;52.496;13.482;2023-02-18T13:34:22;100577.50;;;10.24;100.00
53932;BME280;39844;52.496;13.482;2023-02-18T13:39:34;100573.97;;;10.25;100.00
53932;BME280;39844;52.496;13.482;2023-02-18T13:47:39;100564.34;;;10.25;100.00
53932;BME280;39844;52.496;13.482;2023-02-18T13:52:50;100565.22;;;10.26;100.00
53932;BME280;39844;52.496;13.482;2023-02-18T13:55:25;100556.50;;;10.27;100.00
53932;BME280;39844;52.496;13.482;2023-02-18T13:57:58;100567.00;;;10.27;100.00
53932;BME280;39844;52.496;13.482;2023-02-18T14:00:34;100563.47;;;10.25;100.00
53932;BME280;39844;52.496;13.482;2023-02-18T14:03:18;100577.47;;;10.22;100.00
53932;BME280;39844;52.496;13.482;2023-02-18T14:05:44;100574.88;;;10.21;100.00
53932;BME280;39844;52.496;13.482;2023-02-18T14:09:01;100565.25;;;10.20;100.00
53932;BME280;39844;52.496;13.482;2023-02-18T14:16:19;100554.81;;;10.17;100.00
53932;BME280;39844;52.496;13.482;2023-02-18T14:31:01;100554.81;;;10.17;100.00
53932;BME280;39844;52.496;13.482;2023-02-18T14:33:30;100555.66;;;10.17;100.00
53932;BME280;39844;52.496;13.482;2023-02-18T14:38:40;100560.88;;;10.20;100.00
53932;BME280;39844;52.496;13.482;2023-02-18T14:41:56;100549.53;;;10.24;100.00
53932;BME280;39844;52.496;13.482;2023-02-18T14:44:17;100555.59;;;10.28;100.00
53932;BME280;39844;52.496;13.482;2023-02-18T14:49:47;100561.69;;;10.36;100.00
53932;BME280;39844;52.496;13.482;2023-02-18T14:52:41;100566.94;;;10.36;100.00
53932;BME280;39844;52.496;13.482;2023-02-18T14:55:16;100586.19;;;10.35;100.00
53932;BME280;39844;52.496;13.482;2023-02-18T14:57:50;100582.66;;;10.39;100.00
53932;BME280;39844;52.496;13.482;2023-02-18T15:00:20;100572.16;;;10.39;100.00
53932;BME280;39844;52.496;13.482;2023-02-18T15:02:52;100591.38;;;10.41;100.00
53932;BME280;39844;52.496;13.482;2023-02-18T15:05:23;100594.91;;;10.40;100.00
53932;BME280;39844;52.496;13.482;2023-02-18T15:08:04;100586.19;;;10.30;100.00